sensor_id;sensor_type;location;lat;lon;timestamp;temperature;humidity
74657;DHT22;63185;45.642;13.764;2023-01-09T00:02:05;13.70;81.30
74657;DHT22;63185;45.642;13.764;2023-01-09T00:04:30;13.70;81.00
74657;DHT22;63185;45.642;13.764;2023-01-09T00:06:56;13.70;80.90
74657;DHT22;63185;45.642;13.764;2023-01-09T00:09:22;13.70;80.90
74657;DHT22;63185;45.642;13.764;2023-01-09T00:11:48;13.60;81.10
74657;DHT22;63185;45.642;13.764;2023-01-09T00:14:15;13.60;80.70
74657;DHT22;63185;45.642;13.764;2023-01-09T00:16:41;13.60;80.60
74657;DHT22;63185;45.642;13.764;2023-01-09T00:19:07;13.60;80.40
74657;DHT22;63185;45.642;13.764;2023-01-09T00:21:32;13.60;80.70
74657;DHT22;63185;45.642;13.764;2023-01-09T00:23:58;13.60;80.10
74657;DHT22;63185;45.642;13.764;2023-01-09T00:26:23;13.60;80.60
74657;DHT22;63185;45.642;13.764;2023-01-09T00:28:50;13.60;80.50
74657;DHT22;63185;45.642;13.764;2023-01-09T00:31:16;13.60;80.20
74657;DHT22;63185;45.642;13.764;2023-01-09T00:33:43;13.60;80.20
74657;DHT22;63185;45.642;13.764;2023-01-09T00:36:09;13.50;80.30
74657;DHT22;63185;45.642;13.764;2023-01-09T00:38:34;13.40;80.60
74657;DHT22;63185;45.642;13.764;2023-01-09T00:41:01;13.50;80.80
74657;DHT22;63185;45.642;13.764;2023-01-09T00:43:30;13.50;80.90
74657;DHT22;63185;45.642;13.764;2023-01-09T00:45:57;13.50;80.60
74657;DHT22;63185;45.642;13.764;2023-01-09T00:48:23;13.50;80.40
74657;DHT22;63185;45.642;13.764;2023-01-09T00:50:54;13.50;80.60
74657;DHT22;63185;45.642;13.764;2023-01-09T00:53:22;13.50;80.40
74657;DHT22;63185;45.642;13.764;2023-01-09T00:55:49;13.50;80.30
74657;DHT22;63185;45.642;13.764;2023-01-09T00:58:16;13.50;80.40
74657;DHT22;63185;45.642;13.764;2023-01-09T01:00:41;13.60;80.00
74657;DHT22;63185;45.642;13.764;2023-01-09T01:03:07;13.60;79.30
74657;DHT22;63185;45.642;13.764;2023-01-09T01:05:32;13.60;79.60
74657;DHT22;63185;45.642;13.764;2023-01-09T01:08:36;13.60;78.90
74657;DHT22;63185;45.642;13.764;2023-01-09T01:11:04;13.60;79.00
74657;DHT22;63185;45.642;13.764;2023-01-09T01:13:29;13.60;79.30
74657;DHT22;63185;45.642;13.764;2023-01-09T01:15:55;13.60;79.20
74657;DHT22;63185;45.642;13.764;2023-01-09T01:18:20;13.60;79.00
74657;DHT22;63185;45.642;13.764;2023-01-09T01:20:46;13.60;79.00
74657;DHT22;63185;45.642;13.764;2023-01-09T01:23:12;13.60;79.00
74657;DHT22;63185;45.642;13.764;2023-01-09T01:25:38;13.60;79.00
74657;DHT22;63185;45.642;13.764;2023-01-09T01:28:04;13.60;79.10
74657;DHT22;63185;45.642;13.764;2023-01-09T01:30:30;13.60;79.30
74657;DHT22;63185;45.642;13.764;2023-01-09T01:32:56;13.50;79.10
74657;DHT22;63185;45.642;13.764;2023-01-09T01:35:21;13.50;79.30
74657;DHT22;63185;45.642;13.764;2023-01-09T01:37:47;13.60;79.10
74657;DHT22;63185;45.642;13.764;2023-01-09T01:40:15;13.60;78.90
74657;DHT22;63185;45.642;13.764;2023-01-09T01:42:44;13.60;79.20
74657;DHT22;63185;45.642;13.764;2023-01-09T01:47:47;13.50;79.40
74657;DHT22;63185;45.642;13.764;2023-01-09T01:52:38;13.50;79.70
74657;DHT22;63185;45.642;13.764;2023-01-09T01:55:05;13.50;80.40
74657;DHT22;63185;45.642;13.764;2023-01-09T01:57:32;13.50;80.20
74657;DHT22;63185;45.642;13.764;2023-01-09T01:59:58;13.50;80.10
74657;DHT22;63185;45.642;13.764;2023-01-09T02:02:27;13.50;80.00
74657;DHT22;63185;45.642;13.764;2023-01-09T02:04:54;13.50;80.00
74657;DHT22;63185;45.642;13.764;2023-01-09T02:07:20;13.50;80.20
74657;DHT22;63185;45.642;13.764;2023-01-09T02:09:46;13.30;80.30
74657;DHT22;63185;45.642;13.764;2023-01-09T02:12:23;13.30;80.80
74657;DHT22;63185;45.642;13.764;2023-01-09T02:14:56;13.30;80.80
74657;DHT22;63185;45.642;13.764;2023-01-09T02:22:55;13.40;79.80
74657;DHT22;63185;45.642;13.764;2023-01-09T02:32:57;13.30;79.60
74657;DHT22;63185;45.642;13.764;2023-01-09T02:38:22;13.40;79.50
74657;DHT22;63185;45.642;13.764;2023-01-09T02:41:01;13.40;79.40
74657;DHT22;63185;45.642;13.764;2023-01-09T02:43:28;13.40;79.40
74657;DHT22;63185;45.642;13.764;2023-01-09T02:45:54;13.40;79.60
74657;DHT22;63185;45.642;13.764;2023-01-09T02:48:20;13.40;79.60
74657;DHT22;63185;45.642;13.764;2023-01-09T02:50:57;13.40;79.70
74657;DHT22;63185;45.642;13.764;2023-01-09T02:58:51;13.40;79.50
74657;DHT22;63185;45.642;13.764;2023-01-09T03:04:07;13.30;80.00
74657;DHT22;63185;45.642;13.764;2023-01-09T03:06:48;13.30;80.20
74657;DHT22;63185;45.642;13.764;2023-01-09T03:09:17;13.30;80.60
74657;DHT22;63185;45.642;13.764;2023-01-09T03:11:58;13.20;80.80
74657;DHT22;63185;45.642;13.764;2023-01-09T03:14:24;13.20;81.10
74657;DHT22;63185;45.642;13.764;2023-01-09T03:16:54;13.20;81.00
74657;DHT22;63185;45.642;13.764;2023-01-09T03:19:22;13.30;80.90
74657;DHT22;63185;45.642;13.764;2023-01-09T03:21:48;13.30;81.00
74657;DHT22;63185;45.642;13.764;2023-01-09T03:24:14;13.30;80.90
74657;DHT22;63185;45.642;13.764;2023-01-09T03:26:40;13.30;81.00
74657;DHT22;63185;45.642;13.764;2023-01-09T03:29:05;13.30;81.10
74657;DHT22;63185;45.642;13.764;2023-01-09T03:31:31;13.30;81.20
74657;DHT22;63185;45.642;13.764;2023-01-09T03:33:56;13.30;81.30
74657;DHT22;63185;45.642;13.764;2023-01-09T03:36:22;13.30;81.40
74657;DHT22;63185;45.642;13.764;2023-01-09T03:38:48;13.20;81.40
74657;DHT22;63185;45.642;13.764;2023-01-09T03:41:14;13.20;81.40
74657;DHT22;63185;45.642;13.764;2023-01-09T03:43:39;13.20;81.70
74657;DHT22;63185;45.642;13.764;2023-01-09T03:46:05;13.30;81.90
74657;DHT22;63185;45.642;13.764;2023-01-09T03:48:30;13.20;81.90
74657;DHT22;63185;45.642;13.764;2023-01-09T03:50:56;13.30;81.90
74657;DHT22;63185;45.642;13.764;2023-01-09T03:53:22;13.20;82.00
74657;DHT22;63185;45.642;13.764;2023-01-09T03:55:49;13.20;82.10
74657;DHT22;63185;45.642;13.764;2023-01-09T03:58:15;13.20;81.90
74657;DHT22;63185;45.642;13.764;2023-01-09T04:00:41;13.40;81.20
74657;DHT22;63185;45.642;13.764;2023-01-09T04:03:07;13.40;81.30
74657;DHT22;63185;45.642;13.764;2023-01-09T04:05:33;13.30;81.40
74657;DHT22;63185;45.642;13.764;2023-01-09T04:07:58;13.30;81.40
74657;DHT22;63185;45.642;13.764;2023-01-09T04:10:24;13.40;81.00
74657;DHT22;63185;45.642;13.764;2023-01-09T04:12:50;13.50;80.90
74657;DHT22;63185;45.642;13.764;2023-01-09T04:15:15;13.50;81.10
74657;DHT22;63185;45.642;13.764;2023-01-09T04:17:41;13.50;81.30
74657;DHT22;63185;45.642;13.764;2023-01-09T04:20:07;13.40;81.20
74657;DHT22;63185;45.642;13.764;2023-01-09T04:22:32;13.50;81.10
74657;DHT22;63185;45.642;13.764;2023-01-09T04:24:58;13.50;81.20
74657;DHT22;63185;45.642;13.764;2023-01-09T04:27:23;13.50;81.40
74657;DHT22;63185;45.642;13.764;2023-01-09T04:29:49;13.50;81.30
74657;DHT22;63185;45.642;13.764;2023-01-09T04:32:14;13.60;81.00
74657;DHT22;63185;45.642;13.764;2023-01-09T04:34:40;13.60;80.80
74657;DHT22;63185;45.642;13.764;2023-01-09T04:37:05;13.60;80.90
74657;DHT22;63185;45.642;13.764;2023-01-09T04:39:31;13.70;80.50
74657;DHT22;63185;45.642;13.764;2023-01-09T04:41:57;13.70;80.60
74657;DHT22;63185;45.642;13.764;2023-01-09T04:44:23;13.60;81.00
74657;DHT22;63185;45.642;13.764;2023-01-09T04:46:51;13.70;81.10
74657;DHT22;63185;45.642;13.764;2023-01-09T04:49:19;13.70;80.70
74657;DHT22;63185;45.642;13.764;2023-01-09T04:51:44;13.70;80.70
74657;DHT22;63185;45.642;13.764;2023-01-09T04:54:10;13.80;80.60
74657;DHT22;63185;45.642;13.764;2023-01-09T04:56:36;13.80;80.70
74657;DHT22;63185;45.642;13.764;2023-01-09T04:59:02;13.80;80.60
74657;DHT22;63185;45.642;13.764;2023-01-09T05:01:28;13.90;80.80
74657;DHT22;63185;45.642;13.764;2023-01-09T05:03:53;13.90;80.40
74657;DHT22;63185;45.642;13.764;2023-01-09T05:06:19;14.00;80.30
74657;DHT22;63185;45.642;13.764;2023-01-09T05:08:44;14.00;80.40
74657;DHT22;63185;45.642;13.764;2023-01-09T05:11:10;14.00;80.00
74657;DHT22;63185;45.642;13.764;2023-01-09T05:13:35;14.00;79.60
74657;DHT22;63185;45.642;13.764;2023-01-09T05:16:01;14.10;79.60
74657;DHT22;63185;45.642;13.764;2023-01-09T05:18:26;14.00;79.80
74657;DHT22;63185;45.642;13.764;2023-01-09T05:20:52;14.00;79.90
74657;DHT22;63185;45.642;13.764;2023-01-09T05:23:17;14.10;79.60
74657;DHT22;63185;45.642;13.764;2023-01-09T05:25:43;14.10;80.00
74657;DHT22;63185;45.642;13.764;2023-01-09T05:28:08;14.10;79.90
74657;DHT22;63185;45.642;13.764;2023-01-09T05:30:34;14.00;80.10
74657;DHT22;63185;45.642;13.764;2023-01-09T05:33:00;14.10;80.20
74657;DHT22;63185;45.642;13.764;2023-01-09T05:35:26;14.10;80.40
74657;DHT22;63185;45.642;13.764;2023-01-09T05:37:51;14.00;80.70
74657;DHT22;63185;45.642;13.764;2023-01-09T05:40:17;14.00;80.70
74657;DHT22;63185;45.642;13.764;2023-01-09T05:42:42;14.10;80.50
74657;DHT22;63185;45.642;13.764;2023-01-09T05:45:08;14.00;80.90
74657;DHT22;63185;45.642;13.764;2023-01-09T05:47:34;14.00;80.90
74657;DHT22;63185;45.642;13.764;2023-01-09T05:50:00;13.90;80.90
74657;DHT22;63185;45.642;13.764;2023-01-09T05:52:25;13.90;80.90
74657;DHT22;63185;45.642;13.764;2023-01-09T05:54:51;13.90;81.10
74657;DHT22;63185;45.642;13.764;2023-01-09T05:57:16;13.90;81.00
74657;DHT22;63185;45.642;13.764;2023-01-09T05:59:42;13.90;80.80
74657;DHT22;63185;45.642;13.764;2023-01-09T06:02:07;14.00;80.50
74657;DHT22;63185;45.642;13.764;2023-01-09T06:04:33;14.00;80.60
74657;DHT22;63185;45.642;13.764;2023-01-09T06:06:59;13.90;80.90
74657;DHT22;63185;45.642;13.764;2023-01-09T06:09:27;13.90;81.20
74657;DHT22;63185;45.642;13.764;2023-01-09T06:11:52;13.90;81.40
74657;DHT22;63185;45.642;13.764;2023-01-09T06:14:19;14.10;81.20
74657;DHT22;63185;45.642;13.764;2023-01-09T06:16:44;14.10;81.10
74657;DHT22;63185;45.642;13.764;2023-01-09T06:19:10;14.10;81.10
74657;DHT22;63185;45.642;13.764;2023-01-09T06:21:36;14.10;81.10
74657;DHT22;63185;45.642;13.764;2023-01-09T06:24:01;14.10;81.10
74657;DHT22;63185;45.642;13.764;2023-01-09T06:26:27;14.00;81.40
74657;DHT22;63185;45.642;13.764;2023-01-09T06:28:52;14.10;81.30
74657;DHT22;63185;45.642;13.764;2023-01-09T06:31:21;14.10;81.40
74657;DHT22;63185;45.642;13.764;2023-01-09T06:33:47;14.10;81.40
74657;DHT22;63185;45.642;13.764;2023-01-09T06:36:12;14.10;81.50
74657;DHT22;63185;45.642;13.764;2023-01-09T06:38:38;14.10;81.80
74657;DHT22;63185;45.642;13.764;2023-01-09T06:41:03;14.10;81.80
74657;DHT22;63185;45.642;13.764;2023-01-09T06:43:29;14.10;82.00
74657;DHT22;63185;45.642;13.764;2023-01-09T06:45:55;14.10;81.90
74657;DHT22;63185;45.642;13.764;2023-01-09T06:48:21;14.10;81.90
74657;DHT22;63185;45.642;13.764;2023-01-09T06:50:49;14.10;81.70
74657;DHT22;63185;45.642;13.764;2023-01-09T06:53:15;14.20;81.70
74657;DHT22;63185;45.642;13.764;2023-01-09T06:55:40;14.20;81.80
74657;DHT22;63185;45.642;13.764;2023-01-09T06:58:06;14.20;81.60
74657;DHT22;63185;45.642;13.764;2023-01-09T07:00:31;14.20;81.50
74657;DHT22;63185;45.642;13.764;2023-01-09T07:02:57;14.30;81.40
74657;DHT22;63185;45.642;13.764;2023-01-09T07:05:23;14.20;81.60
74657;DHT22;63185;45.642;13.764;2023-01-09T07:07:48;14.30;81.70
74657;DHT22;63185;45.642;13.764;2023-01-09T07:10:14;14.30;81.80
74657;DHT22;63185;45.642;13.764;2023-01-09T07:12:39;14.30;81.80
74657;DHT22;63185;45.642;13.764;2023-01-09T07:15:05;14.40;81.70
74657;DHT22;63185;45.642;13.764;2023-01-09T07:17:31;14.40;81.80
74657;DHT22;63185;45.642;13.764;2023-01-09T07:19:57;14.40;82.00
74657;DHT22;63185;45.642;13.764;2023-01-09T07:22:22;14.40;81.60
74657;DHT22;63185;45.642;13.764;2023-01-09T07:24:48;14.50;81.70
74657;DHT22;63185;45.642;13.764;2023-01-09T07:27:14;14.50;81.50
74657;DHT22;63185;45.642;13.764;2023-01-09T07:29:39;14.50;81.50
74657;DHT22;63185;45.642;13.764;2023-01-09T07:32:05;14.50;81.60
74657;DHT22;63185;45.642;13.764;2023-01-09T07:34:31;14.60;81.60
74657;DHT22;63185;45.642;13.764;2023-01-09T07:36:56;14.60;81.40
74657;DHT22;63185;45.642;13.764;2023-01-09T07:39:22;14.60;81.40
74657;DHT22;63185;45.642;13.764;2023-01-09T07:41:47;14.60;81.40
74657;DHT22;63185;45.642;13.764;2023-01-09T07:44:13;14.60;81.20
74657;DHT22;63185;45.642;13.764;2023-01-09T07:46:39;14.60;81.40
74657;DHT22;63185;45.642;13.764;2023-01-09T07:49:05;14.60;81.30
74657;DHT22;63185;45.642;13.764;2023-01-09T07:51:30;14.60;81.40
74657;DHT22;63185;45.642;13.764;2023-01-09T07:53:56;14.70;81.20
74657;DHT22;63185;45.642;13.764;2023-01-09T07:56:21;14.70;81.00
74657;DHT22;63185;45.642;13.764;2023-01-09T07:58:47;14.70;80.90
74657;DHT22;63185;45.642;13.764;2023-01-09T08:01:12;14.70;80.70
74657;DHT22;63185;45.642;13.764;2023-01-09T08:03:38;14.80;80.70
74657;DHT22;63185;45.642;13.764;2023-01-09T08:06:03;14.70;80.70
74657;DHT22;63185;45.642;13.764;2023-01-09T08:08:29;14.80;80.80
74657;DHT22;63185;45.642;13.764;2023-01-09T08:10:55;14.90;80.70
74657;DHT22;63185;45.642;13.764;2023-01-09T08:13:20;14.80;80.60
74657;DHT22;63185;45.642;13.764;2023-01-09T08:15:46;14.80;80.80
74657;DHT22;63185;45.642;13.764;2023-01-09T08:18:11;14.80;80.90
74657;DHT22;63185;45.642;13.764;2023-01-09T08:20:37;14.80;80.70
74657;DHT22;63185;45.642;13.764;2023-01-09T08:23:02;14.80;80.70
74657;DHT22;63185;45.642;13.764;2023-01-09T08:25:28;14.90;80.30
74657;DHT22;63185;45.642;13.764;2023-01-09T08:27:54;15.00;80.00
74657;DHT22;63185;45.642;13.764;2023-01-09T08:30:19;15.00;80.10
74657;DHT22;63185;45.642;13.764;2023-01-09T08:32:49;15.00;80.00
74657;DHT22;63185;45.642;13.764;2023-01-09T08:35:15;15.00;79.80
74657;DHT22;63185;45.642;13.764;2023-01-09T08:37:47;15.10;80.00
74657;DHT22;63185;45.642;13.764;2023-01-09T08:40:13;15.10;79.40
74657;DHT22;63185;45.642;13.764;2023-01-09T08:42:39;15.20;79.60
74657;DHT22;63185;45.642;13.764;2023-01-09T08:45:23;15.20;79.60
74657;DHT22;63185;45.642;13.764;2023-01-09T08:48:07;15.30;79.80
74657;DHT22;63185;45.642;13.764;2023-01-09T08:50:33;15.50;79.30
74657;DHT22;63185;45.642;13.764;2023-01-09T08:52:58;15.60;79.20
74657;DHT22;63185;45.642;13.764;2023-01-09T08:55:24;15.60;78.90
74657;DHT22;63185;45.642;13.764;2023-01-09T08:57:50;15.70;78.80
74657;DHT22;63185;45.642;13.764;2023-01-09T09:00:16;15.80;78.50
74657;DHT22;63185;45.642;13.764;2023-01-09T09:02:42;15.90;78.40
74657;DHT22;63185;45.642;13.764;2023-01-09T09:05:08;15.90;78.40
74657;DHT22;63185;45.642;13.764;2023-01-09T09:07:33;16.00;78.40
74657;DHT22;63185;45.642;13.764;2023-01-09T09:09:59;16.10;77.90
74657;DHT22;63185;45.642;13.764;2023-01-09T09:12:24;16.10;77.70
74657;DHT22;63185;45.642;13.764;2023-01-09T09:14:50;16.10;77.70
74657;DHT22;63185;45.642;13.764;2023-01-09T09:17:34;16.00;77.80
74657;DHT22;63185;45.642;13.764;2023-01-09T09:19:59;15.90;77.90
74657;DHT22;63185;45.642;13.764;2023-01-09T09:22:25;15.90;78.20
74657;DHT22;63185;45.642;13.764;2023-01-09T09:24:50;15.90;78.30
74657;DHT22;63185;45.642;13.764;2023-01-09T09:27:16;15.80;78.50
74657;DHT22;63185;45.642;13.764;2023-01-09T09:29:41;15.90;78.00
74657;DHT22;63185;45.642;13.764;2023-01-09T09:32:07;15.90;78.00
74657;DHT22;63185;45.642;13.764;2023-01-09T09:34:33;15.80;78.40
74657;DHT22;63185;45.642;13.764;2023-01-09T09:36:58;15.80;78.80
74657;DHT22;63185;45.642;13.764;2023-01-09T09:39:24;15.70;78.80
74657;DHT22;63185;45.642;13.764;2023-01-09T09:54:48;15.70;78.90
74657;DHT22;63185;45.642;13.764;2023-01-09T09:57:20;15.70;78.60
74657;DHT22;63185;45.642;13.764;2023-01-09T09:59:47;15.70;78.50
74657;DHT22;63185;45.642;13.764;2023-01-09T10:04:55;15.80;78.40
74657;DHT22;63185;45.642;13.764;2023-01-09T10:07:27;15.80;78.20
74657;DHT22;63185;45.642;13.764;2023-01-09T10:09:54;15.70;78.40
74657;DHT22;63185;45.642;13.764;2023-01-09T10:12:28;15.80;77.90
74657;DHT22;63185;45.642;13.764;2023-01-09T10:14:55;15.80;78.00
74657;DHT22;63185;45.642;13.764;2023-01-09T10:20:15;15.90;78.00
74657;DHT22;63185;45.642;13.764;2023-01-09T10:22:54;15.90;77.90
74657;DHT22;63185;45.642;13.764;2023-01-09T10:25:48;15.90;77.40
74657;DHT22;63185;45.642;13.764;2023-01-09T10:28:31;15.90;77.50
74657;DHT22;63185;45.642;13.764;2023-01-09T10:31:03;15.80;77.70
74657;DHT22;63185;45.642;13.764;2023-01-09T10:36:12;15.90;77.10
74657;DHT22;63185;45.642;13.764;2023-01-09T10:38:44;16.00;76.90
74657;DHT22;63185;45.642;13.764;2023-01-09T10:41:15;16.00;76.70
74657;DHT22;63185;45.642;13.764;2023-01-09T10:43:47;15.90;77.10
74657;DHT22;63185;45.642;13.764;2023-01-09T10:46:23;15.90;77.60
74657;DHT22;63185;45.642;13.764;2023-01-09T10:48:51;15.90;78.00
74657;DHT22;63185;45.642;13.764;2023-01-09T10:51:26;16.00;78.00
74657;DHT22;63185;45.642;13.764;2023-01-09T10:53:55;16.10;77.90
74657;DHT22;63185;45.642;13.764;2023-01-09T10:56:35;16.10;77.80
74657;DHT22;63185;45.642;13.764;2023-01-09T10:59:01;16.20;76.90
74657;DHT22;63185;45.642;13.764;2023-01-09T11:01:32;16.30;76.60
74657;DHT22;63185;45.642;13.764;2023-01-09T11:03:58;16.40;76.00
74657;DHT22;63185;45.642;13.764;2023-01-09T11:06:31;16.50;76.00
74657;DHT22;63185;45.642;13.764;2023-01-09T11:09:00;16.60;76.00
74657;DHT22;63185;45.642;13.764;2023-01-09T11:11:31;16.60;75.60
74657;DHT22;63185;45.642;13.764;2023-01-09T11:14:02;16.70;75.20
74657;DHT22;63185;45.642;13.764;2023-01-09T11:16:28;16.70;75.60
74657;DHT22;63185;45.642;13.764;2023-01-09T11:18:54;16.90;74.90
74657;DHT22;63185;45.642;13.764;2023-01-09T11:24:38;16.70;75.20
74657;DHT22;63185;45.642;13.764;2023-01-09T11:26:46;16.40;75.80
74657;DHT22;63185;45.642;13.764;2023-01-09T11:31:41;16.10;76.90
74657;DHT22;63185;45.642;13.764;2023-01-09T11:34:17;16.00;77.50
74657;DHT22;63185;45.642;13.764;2023-01-09T11:36:43;16.00;77.40
74657;DHT22;63185;45.642;13.764;2023-01-09T11:39:22;15.90;77.20
74657;DHT22;63185;45.642;13.764;2023-01-09T11:42:08;15.90;77.90
74657;DHT22;63185;45.642;13.764;2023-01-09T11:44:37;16.10;77.20
74657;DHT22;63185;45.642;13.764;2023-01-09T11:47:03;16.20;76.50
74657;DHT22;63185;45.642;13.764;2023-01-09T11:49:47;16.40;76.30
74657;DHT22;63185;45.642;13.764;2023-01-09T11:54:40;16.10;76.40
74657;DHT22;63185;45.642;13.764;2023-01-09T11:57:09;16.00;76.70
74657;DHT22;63185;45.642;13.764;2023-01-09T11:59:35;15.90;76.70
74657;DHT22;63185;45.642;13.764;2023-01-09T12:04:37;15.80;77.00
74657;DHT22;63185;45.642;13.764;2023-01-09T12:11:59;15.70;77.80
74657;DHT22;63185;45.642;13.764;2023-01-09T12:19:42;15.40;78.80
74657;DHT22;63185;45.642;13.764;2023-01-09T12:30:17;14.90;81.00
74657;DHT22;63185;45.642;13.764;2023-01-09T12:32:52;14.90;81.00
74657;DHT22;63185;45.642;13.764;2023-01-09T12:35:28;14.90;80.80
74657;DHT22;63185;45.642;13.764;2023-01-09T12:43:47;14.70;80.80
74657;DHT22;63185;45.642;13.764;2023-01-09T12:48:23;14.80;81.30
74657;DHT22;63185;45.642;13.764;2023-01-09T12:53:27;15.00;81.10
74657;DHT22;63185;45.642;13.764;2023-01-09T12:56:06;15.00;81.00
74657;DHT22;63185;45.642;13.764;2023-01-09T13:01:02;15.20;80.90
74657;DHT22;63185;45.642;13.764;2023-01-09T13:03:40;15.10;81.00
74657;DHT22;63185;45.642;13.764;2023-01-09T13:06:10;15.00;81.40
74657;DHT22;63185;45.642;13.764;2023-01-09T13:08:44;14.90;81.60
74657;DHT22;63185;45.642;13.764;2023-01-09T13:11:27;14.90;81.80
74657;DHT22;63185;45.642;13.764;2023-01-09T13:14:00;14.80;81.30
74657;DHT22;63185;45.642;13.764;2023-01-09T13:16:32;14.80;81.80
74657;DHT22;63185;45.642;13.764;2023-01-09T13:19:17;15.00;81.50
74657;DHT22;63185;45.642;13.764;2023-01-09T13:21:44;15.00;80.90
74657;DHT22;63185;45.642;13.764;2023-01-09T13:24:21;15.20;80.10
74657;DHT22;63185;45.642;13.764;2023-01-09T13:26:50;15.10;79.80
74657;DHT22;63185;45.642;13.764;2023-01-09T13:29:18;15.10;80.00
74657;DHT22;63185;45.642;13.764;2023-01-09T13:34:18;15.20;79.40
74657;DHT22;63185;45.642;13.764;2023-01-09T13:36:46;15.20;79.40
74657;DHT22;63185;45.642;13.764;2023-01-09T13:39:19;15.10;79.50
74657;DHT22;63185;45.642;13.764;2023-01-09T13:41:46;15.00;79.60
74657;DHT22;63185;45.642;13.764;2023-01-09T13:44:31;15.00;80.10
74657;DHT22;63185;45.642;13.764;2023-01-09T13:46:57;15.00;80.10
74657;DHT22;63185;45.642;13.764;2023-01-09T13:52:02;14.80;80.80
74657;DHT22;63185;45.642;13.764;2023-01-09T13:59:43;14.80;81.50
74657;DHT22;63185;45.642;13.764;2023-01-09T14:04:54;15.10;81.20
74657;DHT22;63185;45.642;13.764;2023-01-09T14:07:20;15.10;80.90
74657;DHT22;63185;45.642;13.764;2023-01-09T14:09:51;15.20;80.60
74657;DHT22;63185;45.642;13.764;2023-01-09T14:12:17;15.10;80.70
74657;DHT22;63185;45.642;13.764;2023-01-09T14:14:43;15.10;80.90
74657;DHT22;63185;45.642;13.764;2023-01-09T14:17:16;15.10;80.90
74657;DHT22;63185;45.642;13.764;2023-01-09T14:19:43;15.10;80.90
74657;DHT22;63185;45.642;13.764;2023-01-09T14:25:14;15.10;80.40
74657;DHT22;63185;45.642;13.764;2023-01-09T14:38:18;15.30;80.10
74657;DHT22;63185;45.642;13.764;2023-01-09T14:40:43;15.30;80.00
74657;DHT22;63185;45.642;13.764;2023-01-09T14:43:27;15.30;79.90
74657;DHT22;63185;45.642;13.764;2023-01-09T14:45:57;15.30;79.60
74657;DHT22;63185;45.642;13.764;2023-01-09T14:48:24;15.30;79.50
74657;DHT22;63185;45.642;13.764;2023-01-09T14:50:51;15.30;79.40
74657;DHT22;63185;45.642;13.764;2023-01-09T14:53:24;15.20;79.70
74657;DHT22;63185;45.642;13.764;2023-01-09T14:55:55;15.10;79.80
74657;DHT22;63185;45.642;13.764;2023-01-09T14:58:23;15.20;80.00
74657;DHT22;63185;45.642;13.764;2023-01-09T15:03:20;15.10;79.90
74657;DHT22;63185;45.642;13.764;2023-01-09T15:05:46;15.00;80.30
74657;DHT22;63185;45.642;13.764;2023-01-09T15:08:16;15.10;80.00
74657;DHT22;63185;45.642;13.764;2023-01-09T15:10:43;14.90;80.10
74657;DHT22;63185;45.642;13.764;2023-01-09T15:13:11;14.40;80.40
74657;DHT22;63185;45.642;13.764;2023-01-09T15:15:42;14.20;81.50
74657;DHT22;63185;45.642;13.764;2023-01-09T15:18:08;14.20;81.00
74657;DHT22;63185;45.642;13.764;2023-01-09T15:20:35;14.30;81.40
74657;DHT22;63185;45.642;13.764;2023-01-09T15:23:00;14.20;81.00
74657;DHT22;63185;45.642;13.764;2023-01-09T15:25:29;14.00;81.80
74657;DHT22;63185;45.642;13.764;2023-01-09T15:27:56;14.00;82.00
74657;DHT22;63185;45.642;13.764;2023-01-09T15:32:48;13.60;83.50
74657;DHT22;63185;45.642;13.764;2023-01-09T15:35:14;13.40;84.00
74657;DHT22;63185;45.642;13.764;2023-01-09T15:37:40;13.50;84.00
74657;DHT22;63185;45.642;13.764;2023-01-09T15:40:12;13.40;83.90
74657;DHT22;63185;45.642;13.764;2023-01-09T15:42:46;13.30;84.10
74657;DHT22;63185;45.642;13.764;2023-01-09T15:45:26;13.30;84.30
74657;DHT22;63185;45.642;13.764;2023-01-09T15:47:52;13.20;84.40
74657;DHT22;63185;45.642;13.764;2023-01-09T15:50:24;13.10;84.50
74657;DHT22;63185;45.642;13.764;2023-01-09T15:52:50;13.30;84.50
74657;DHT22;63185;45.642;13.764;2023-01-09T15:58:26;13.20;84.00
74657;DHT22;63185;45.642;13.764;2023-01-09T16:00:54;13.10;84.00
74657;DHT22;63185;45.642;13.764;2023-01-09T16:03:21;13.20;84.30
74657;DHT22;63185;45.642;13.764;2023-01-09T16:05:51;13.10;84.10
74657;DHT22;63185;45.642;13.764;2023-01-09T16:08:21;13.20;84.40
74657;DHT22;63185;45.642;13.764;2023-01-09T16:10:51;13.20;84.60
74657;DHT22;63185;45.642;13.764;2023-01-09T16:13:18;13.20;85.00
74657;DHT22;63185;45.642;13.764;2023-01-09T16:15:45;13.20;84.70
74657;DHT22;63185;45.642;13.764;2023-01-09T16:20:42;13.20;84.10
74657;DHT22;63185;45.642;13.764;2023-01-09T16:26:11;12.90;77.80
74657;DHT22;63185;45.642;13.764;2023-01-09T16:28:36;12.70;77.40
74657;DHT22;63185;45.642;13.764;2023-01-09T16:31:18;12.70;78.00
74657;DHT22;63185;45.642;13.764;2023-01-09T16:33:45;12.60;77.30
74657;DHT22;63185;45.642;13.764;2023-01-09T16:36:12;12.40;76.20
74657;DHT22;63185;45.642;13.764;2023-01-09T16:38:40;12.40;78.50
74657;DHT22;63185;45.642;13.764;2023-01-09T16:41:16;12.50;76.00
74657;DHT22;63185;45.642;13.764;2023-01-09T16:44:00;12.40;75.20
74657;DHT22;63185;45.642;13.764;2023-01-09T16:46:28;12.30;74.90
74657;DHT22;63185;45.642;13.764;2023-01-09T16:48:53;12.20;73.90
74657;DHT22;63185;45.642;13.764;2023-01-09T16:51:20;12.20;73.80
74657;DHT22;63185;45.642;13.764;2023-01-09T16:53:46;12.20;73.50
74657;DHT22;63185;45.642;13.764;2023-01-09T16:56:33;12.30;73.40
74657;DHT22;63185;45.642;13.764;2023-01-09T16:58:58;12.20;73.60
74657;DHT22;63185;45.642;13.764;2023-01-09T17:01:23;12.10;73.90
74657;DHT22;63185;45.642;13.764;2023-01-09T17:03:49;12.10;73.20
74657;DHT22;63185;45.642;13.764;2023-01-09T17:06:18;11.90;74.10
74657;DHT22;63185;45.642;13.764;2023-01-09T17:08:45;11.90;72.80
74657;DHT22;63185;45.642;13.764;2023-01-09T17:11:21;11.80;74.20
74657;DHT22;63185;45.642;13.764;2023-01-09T17:13:47;11.60;73.70
74657;DHT22;63185;45.642;13.764;2023-01-09T17:16:14;11.40;74.80
74657;DHT22;63185;45.642;13.764;2023-01-09T17:18:40;11.40;74.70
74657;DHT22;63185;45.642;13.764;2023-01-09T17:21:08;11.40;73.30
74657;DHT22;63185;45.642;13.764;2023-01-09T17:23:38;11.20;73.80
74657;DHT22;63185;45.642;13.764;2023-01-09T17:26:04;11.10;75.30
74657;DHT22;63185;45.642;13.764;2023-01-09T17:28:48;11.00;74.20
74657;DHT22;63185;45.642;13.764;2023-01-09T17:31:14;10.90;76.20
74657;DHT22;63185;45.642;13.764;2023-01-09T17:33:40;10.90;75.90